createdAt,value
2023-06-25T00:00:54.652Z,101777.19
2023-06-25T00:01:54.831Z,101775.16
2023-06-25T00:02:55.712Z,101773.05
2023-06-25T00:03:56.561Z,101770.63
2023-06-25T00:04:57.378Z,101768.30
2023-06-25T00:05:58.156Z,101766.64
2023-06-25T00:06:58.992Z,101764.27
2023-06-25T00:07:59.953Z,101762.88
2023-06-25T00:09:00.701Z,101760.47
2023-06-25T00:10:01.592Z,101758.64
2023-06-25T00:11:02.338Z,101756.97
2023-06-25T00:12:03.188Z,101755.00
2023-06-25T00:12:11.857Z,101724.67
2023-06-25T00:13:12.034Z,101723.77
2023-06-25T00:14:12.777Z,101724.28
2023-06-25T00:15:13.564Z,101723.78
2023-06-25T00:16:14.545Z,101723.53
2023-06-25T00:17:15.420Z,101723.07
2023-06-25T00:18:16.427Z,101722.87
2023-06-25T00:19:17.536Z,101722.41
2023-06-25T00:20:17.431Z,101722.09
2023-06-25T00:21:18.211Z,101721.11
2023-06-25T00:22:19.049Z,101720.05
2023-06-25T00:23:19.860Z,101718.16
2023-06-25T00:24:20.695Z,101717.22
2023-06-25T00:25:21.624Z,101716.06
2023-06-25T00:26:22.426Z,101714.96
2023-06-25T00:27:23.204Z,101713.98
2023-06-25T00:28:24.186Z,101712.80
2023-06-25T00:29:25.101Z,101711.48
2023-06-25T00:30:25.916Z,101710.12
2023-06-25T00:31:26.766Z,101708.97
2023-06-25T00:32:27.421Z,101708.21
2023-06-25T00:33:28.250Z,101707.69
2023-06-25T00:34:28.998Z,101707.44
2023-06-25T00:35:29.760Z,101706.55
2023-06-25T00:36:30.449Z,101706.38
2023-06-25T00:37:30.754Z,101705.61
2023-06-25T00:38:31.567Z,101705.19
2023-06-25T00:39:32.304Z,101705.02
2023-06-25T00:40:32.995Z,101704.64
2023-06-25T00:41:33.717Z,101703.93
2023-06-25T00:42:34.375Z,101703.24
2023-06-25T00:43:35.374Z,101702.03
2023-06-25T00:44:36.179Z,101701.28
2023-06-25T00:45:36.956Z,101700.32
2023-06-25T00:45:45.580Z,101677.52
2023-06-25T00:46:46.488Z,101677.35
2023-06-25T00:47:47.290Z,101676.84
2023-06-25T00:48:48.090Z,101676.75
2023-06-25T00:49:49.055Z,101676.41
2023-06-25T00:50:49.768Z,101676.28
2023-06-25T00:51:50.766Z,101675.94
2023-06-25T00:52:51.511Z,101675.30
2023-06-25T00:53:52.345Z,101675.56
2023-06-25T00:54:53.135Z,101675.27
2023-06-25T00:55:53.935Z,101675.23
2023-06-25T00:56:54.751Z,101674.83
2023-06-25T00:57:55.474Z,101674.53
2023-06-25T00:58:56.370Z,101674.94
2023-06-25T00:59:57.125Z,101674.97
2023-06-25T01:00:58.013Z,101674.36
2023-06-25T01:01:58.679Z,101673.77
2023-06-25T01:02:59.619Z,101672.68
2023-06-25T01:04:00.445Z,101672.20
2023-06-25T01:05:00.369Z,101671.45
2023-06-25T01:06:12.225Z,101670.33
2023-06-25T01:07:02.108Z,101669.48
2023-06-25T01:08:02.832Z,101667.84
2023-06-25T01:09:03.755Z,101666.19
2023-06-25T01:10:04.642Z,101664.29
2023-06-25T01:11:05.362Z,101662.55
2023-06-25T01:12:06.259Z,101661.40
2023-06-25T01:13:06.960Z,101659.11
2023-06-25T01:14:07.809Z,101657.64
2023-06-25T01:15:08.572Z,101655.72
2023-06-25T01:16:09.289Z,101654.74
2023-06-25T01:17:10.062Z,101653.34
2023-06-25T01:18:10.877Z,101651.69
2023-06-25T01:19:11.595Z,101650.48
2023-06-25T01:19:20.258Z,101624.03
2023-06-25T01:20:20.987Z,101623.09
2023-06-25T01:21:21.709Z,101622.83
2023-06-25T01:22:22.668Z,101622.73
2023-06-25T01:23:23.472Z,101621.84
2023-06-25T01:24:24.284Z,101620.97
2023-06-25T01:25:25.026Z,101619.68
2023-06-25T01:26:25.833Z,101619.39
2023-06-25T01:27:26.668Z,101617.98
2023-06-25T01:28:26.903Z,101617.39
2023-06-25T01:29:27.782Z,101616.25
2023-06-25T01:30:28.531Z,101614.97
2023-06-25T01:31:29.266Z,101613.52
2023-06-25T01:32:30.240Z,101612.45
2023-06-25T01:33:30.940Z,101611.41
2023-06-25T01:34:31.863Z,101610.14
2023-06-25T01:35:32.972Z,101608.55
2023-06-25T01:36:32.763Z,101606.71
2023-06-25T01:37:33.417Z,101604.92
2023-06-25T01:38:34.159Z,101603.38
2023-06-25T01:39:35.055Z,101601.97
2023-06-25T01:40:35.820Z,101600.70
2023-06-25T01:41:36.578Z,101598.97
2023-06-25T01:42:36.675Z,101597.15
2023-06-25T01:43:37.349Z,101595.06
2023-06-25T01:44:38.137Z,101593.75
2023-06-25T01:45:39.174Z,101592.22
2023-06-25T01:46:39.678Z,101590.23
2023-06-25T01:47:40.558Z,101589.00
2023-06-25T01:48:41.190Z,101587.78
2023-06-25T01:49:41.969Z,101585.80
2023-06-25T01:50:42.759Z,101583.93
2023-06-25T01:51:43.651Z,101581.77
2023-06-25T01:51:53.276Z,101556.16
2023-06-25T01:52:53.315Z,101554.88
2023-06-25T01:53:54.104Z,101554.28
2023-06-25T01:54:54.975Z,101553.72
2023-06-25T01:55:55.854Z,101552.60
2023-06-25T01:56:56.633Z,101552.68
2023-06-25T01:57:57.356Z,101551.58
2023-06-25T01:58:58.094Z,101550.81
2023-06-25T01:59:58.860Z,101549.67
2023-06-25T02:00:59.664Z,101546.48
2023-06-25T02:02:00.434Z,101542.73
2023-06-25T02:03:00.739Z,101539.28
2023-06-25T02:04:01.419Z,101535.23
2023-06-25T02:05:02.334Z,101531.66
2023-06-25T02:06:03.101Z,101528.07
2023-06-25T02:07:04.066Z,101524.92
2023-06-25T02:08:04.328Z,101521.08
2023-06-25T02:09:05.008Z,101517.77
2023-06-25T02:10:05.856Z,101514.32
2023-06-25T02:11:06.030Z,101511.18
2023-06-25T02:12:06.823Z,101508.09
2023-06-25T02:13:07.579Z,101504.73
2023-06-25T02:14:08.332Z,101501.28
2023-06-25T02:15:09.320Z,101499.03
2023-06-25T02:16:09.346Z,101495.84
2023-06-25T02:17:10.132Z,101492.95
2023-06-25T02:18:10.977Z,101490.27
2023-06-25T02:19:11.811Z,101487.37
2023-06-25T02:20:12.154Z,101484.60
2023-06-25T02:21:12.956Z,101482.18
2023-06-25T02:22:13.798Z,101480.03
2023-06-25T02:23:14.640Z,101477.23
2023-06-25T02:24:15.310Z,101474.91
2023-06-25T02:24:24.018Z,101444.05
2023-06-25T02:25:24.491Z,101443.12
2023-06-25T02:26:25.341Z,101443.20
2023-06-25T02:27:26.257Z,101442.69
2023-06-25T02:28:27.087Z,101442.52
2023-06-25T02:29:27.834Z,101442.34
2023-06-25T02:30:27.987Z,101442.44
2023-06-25T02:31:28.827Z,101442.39
2023-06-25T02:32:29.600Z,101441.64
2023-06-25T02:33:30.284Z,101441.77
2023-06-25T02:34:31.087Z,101440.76
2023-06-25T02:35:31.831Z,101439.61
2023-06-25T02:36:32.702Z,101439.11
2023-06-25T02:37:33.537Z,101437.63
2023-06-25T02:38:34.283Z,101437.11
2023-06-25T02:39:35.129Z,101436.44
2023-06-25T02:40:35.871Z,101436.14
2023-06-25T02:41:36.691Z,101435.26
2023-06-25T02:42:37.581Z,101434.42
2023-06-25T02:43:38.246Z,101433.27
2023-06-25T02:44:39.094Z,101431.67
2023-06-25T02:45:39.284Z,101430.52
2023-06-25T02:46:39.961Z,101428.95
2023-06-25T02:47:40.783Z,101427.55
2023-06-25T02:48:41.511Z,101425.40
2023-06-25T02:49:42.363Z,101423.42
2023-06-25T02:50:43.156Z,101421.52
2023-06-25T02:51:43.917Z,101419.77
2023-06-25T02:52:44.365Z,101417.86
2023-06-25T02:53:45.268Z,101415.80
2023-06-25T02:54:45.462Z,101413.80
2023-06-25T02:55:45.524Z,101411.65
2023-06-25T02:55:54.670Z,101385.00
2023-06-25T02:56:54.782Z,101384.32
2023-06-25T02:57:54.994Z,101383.69
2023-06-25T02:58:55.854Z,101383.00
2023-06-25T02:59:56.875Z,101382.65
2023-06-25T03:00:57.810Z,101381.63
2023-06-25T03:01:57.803Z,101380.72
2023-06-25T03:02:58.828Z,101380.04
2023-06-25T03:03:59.585Z,101379.09
2023-06-25T03:05:00.471Z,101377.99
2023-06-25T03:06:01.034Z,101376.72
2023-06-25T03:07:01.962Z,101376.16
2023-06-25T03:08:02.311Z,101374.64
2023-06-25T03:09:02.976Z,101373.57
2023-06-25T03:10:03.861Z,101372.39
2023-06-25T03:11:04.450Z,101371.58
2023-06-25T03:12:05.235Z,101370.14
2023-06-25T03:13:05.531Z,101369.45
2023-06-25T03:14:06.441Z,101368.02
2023-06-25T03:15:07.396Z,101366.81
2023-06-25T03:16:07.419Z,101365.67
2023-06-25T03:17:08.259Z,101364.40
2023-06-25T03:18:09.243Z,101363.80
2023-06-25T03:19:10.137Z,101362.45
2023-06-25T03:20:11.105Z,101360.98
2023-06-25T03:21:11.986Z,101358.99
2023-06-25T03:22:12.875Z,101357.22
2023-06-25T03:23:13.776Z,101355.45
2023-06-25T03:24:14.772Z,101353.60
2023-06-25T03:25:15.691Z,101351.92
2023-06-25T03:26:16.560Z,101349.61
2023-06-25T03:27:17.521Z,101347.41
2023-06-25T03:27:26.712Z,101310.52
2023-06-25T03:28:27.558Z,101310.27
2023-06-25T03:29:27.611Z,101310.17
2023-06-25T03:30:27.709Z,101309.53
2023-06-25T03:31:27.851Z,101308.95
2023-06-25T03:32:28.697Z,101308.51
2023-06-25T03:33:29.542Z,101307.92
2023-06-25T03:34:30.327Z,101307.59
2023-06-25T03:35:30.423Z,101307.38
2023-06-25T03:36:31.359Z,101306.52
2023-06-25T03:37:31.407Z,101305.55
2023-06-25T03:38:31.749Z,101304.48
2023-06-25T03:39:32.655Z,101303.89
2023-06-25T03:40:34.132Z,101302.40
2023-06-25T03:41:34.076Z,101301.73
2023-06-25T03:42:35.015Z,101300.80
2023-06-25T03:43:35.958Z,101300.20
2023-06-25T03:44:36.100Z,101298.75
2023-06-25T03:45:37.350Z,101297.73
2023-06-25T03:46:37.921Z,101296.92
2023-06-25T03:47:38.773Z,101295.55
2023-06-25T03:48:38.772Z,101294.70
2023-06-25T03:49:38.866Z,101293.00
2023-06-25T03:50:39.793Z,101292.07
2023-06-25T03:51:40.748Z,101290.87
2023-06-25T03:52:41.620Z,101289.59
2023-06-25T03:53:42.505Z,101288.69
2023-06-25T03:54:43.376Z,101287.67
2023-06-25T03:55:44.322Z,101286.72
2023-06-25T03:56:45.159Z,101285.95
2023-06-25T03:57:46.160Z,101285.22
2023-06-25T03:58:47.016Z,101284.95
2023-06-25T03:59:47.924Z,101283.72
2023-06-25T04:00:48.814Z,101283.02
2023-06-25T04:01:48.947Z,101282.38
2023-06-25T04:01:58.031Z,101280.30
2023-06-25T04:02:58.783Z,101279.27
2023-06-25T04:03:59.642Z,101279.05
2023-06-25T04:05:00.614Z,101278.97
2023-06-25T04:06:01.610Z,101278.98
2023-06-25T04:07:02.530Z,101278.53
2023-06-25T04:08:03.224Z,101277.77
2023-06-25T04:09:03.908Z,101276.91
2023-06-25T04:10:04.691Z,101275.72
2023-06-25T04:11:05.469Z,101275.28
2023-06-25T04:12:06.340Z,101274.98
2023-06-25T04:13:07.226Z,101274.23
2023-06-25T04:14:08.092Z,101274.08
2023-06-25T04:15:08.804Z,101274.14
2023-06-25T04:16:09.625Z,101274.03
2023-06-25T04:17:10.426Z,101273.74
2023-06-25T04:18:11.180Z,101273.71
2023-06-25T04:19:11.985Z,101273.76
2023-06-25T04:20:12.784Z,101274.05
2023-06-25T04:21:13.529Z,101274.48
2023-06-25T04:22:13.611Z,101275.25
2023-06-25T04:23:14.470Z,101275.50
2023-06-25T04:24:14.847Z,101275.83
2023-06-25T04:25:15.764Z,101276.91
2023-06-25T04:26:15.832Z,101278.14
2023-06-25T04:27:16.802Z,101279.14
2023-06-25T04:28:16.834Z,101280.59
2023-06-25T04:29:17.640Z,101282.79
2023-06-25T04:30:18.501Z,101284.50
2023-06-25T04:31:19.498Z,101286.62
2023-06-25T04:32:19.730Z,101289.13
2023-06-25T04:33:20.637Z,101292.28
2023-06-25T04:33:29.333Z,101338.30
2023-06-25T04:34:29.497Z,101337.63
2023-06-25T04:35:32.507Z,101337.19
2023-06-25T04:36:31.046Z,101337.12
2023-06-25T04:37:31.949Z,101337.06
2023-06-25T04:38:31.988Z,101337.71
2023-06-25T04:39:32.118Z,101339.65
2023-06-25T04:40:32.995Z,101341.71
2023-06-25T04:41:33.860Z,101343.36
2023-06-25T04:42:34.870Z,101345.08
2023-06-25T04:43:35.650Z,101347.53
2023-06-25T04:44:36.543Z,101350.23
2023-06-25T04:45:37.533Z,101352.15
2023-06-25T04:46:38.248Z,101354.66
2023-06-25T04:47:39.124Z,101357.48
2023-06-25T04:48:39.898Z,101360.42
2023-06-25T04:49:40.860Z,101363.80
2023-06-25T04:50:41.812Z,101367.48
2023-06-25T04:51:42.631Z,101370.69
2023-06-25T04:52:43.571Z,101374.80
2023-06-25T04:53:43.999Z,101378.59
2023-06-25T04:54:44.857Z,101382.10
2023-06-25T04:55:45.693Z,101385.22
2023-06-25T04:56:46.710Z,101388.08
2023-06-25T04:57:46.992Z,101391.39
2023-06-25T04:58:47.716Z,101394.98
2023-06-25T04:59:48.582Z,101399.30
2023-06-25T05:00:49.418Z,101403.23
2023-06-25T05:01:50.355Z,101407.42
2023-06-25T05:02:51.145Z,101411.12
2023-06-25T05:03:51.910Z,101415.03
2023-06-25T05:04:52.696Z,101419.63
2023-06-25T05:05:01.377Z,101510.44
2023-06-25T05:06:02.121Z,101509.92
2023-06-25T05:07:03.045Z,101510.54
2023-06-25T05:08:03.807Z,101512.30
2023-06-25T05:09:04.651Z,101515.16
2023-06-25T05:10:05.598Z,101517.87
2023-06-25T05:11:06.940Z,101522.43
2023-06-25T05:12:07.214Z,101528.95
2023-06-25T05:13:08.066Z,101536.88
2023-06-25T05:14:08.939Z,101546.66
2023-06-25T05:15:09.716Z,101557.78
2023-06-25T05:16:10.515Z,101569.68
2023-06-25T05:17:11.375Z,101582.84
2023-06-25T05:18:12.160Z,101597.09
2023-06-25T05:19:13.007Z,101611.33
2023-06-25T05:20:13.773Z,101625.91
2023-06-25T05:21:14.526Z,101640.53
2023-06-25T05:22:15.403Z,101654.59
2023-06-25T05:23:15.781Z,101669.20
2023-06-25T05:24:15.908Z,101683.00
2023-06-25T05:25:16.648Z,101696.05
2023-06-25T05:26:17.472Z,101709.19
2023-06-25T05:27:18.249Z,101721.77
2023-06-25T05:28:19.177Z,101734.11
2023-06-25T05:29:21.165Z,101746.36
2023-06-25T05:30:21.091Z,101757.67
2023-06-25T05:31:21.931Z,101769.23
2023-06-25T05:32:22.814Z,101779.58
2023-06-25T05:33:23.650Z,101789.61
2023-06-25T05:34:24.395Z,101798.89
2023-06-25T05:35:25.135Z,101807.62
2023-06-25T05:35:34.879Z,101939.80
2023-06-25T05:36:35.522Z,101940.37
2023-06-25T05:37:35.622Z,101940.95
2023-06-25T05:38:36.495Z,101941.41
2023-06-25T05:39:37.195Z,101941.86
2023-06-25T05:40:37.961Z,101942.02
2023-06-25T05:41:38.922Z,101942.21
2023-06-25T05:42:39.738Z,101942.19
2023-06-25T05:43:40.247Z,101942.64
2023-06-25T05:44:41.173Z,101942.27
2023-06-25T05:45:41.432Z,101942.47
2023-06-25T05:46:42.197Z,101942.91
2023-06-25T05:47:42.893Z,101943.40
2023-06-25T05:48:43.781Z,101943.73
2023-06-25T05:49:44.468Z,101944.31
2023-06-25T05:50:45.294Z,101944.83
2023-06-25T05:51:46.083Z,101944.94
2023-06-25T05:52:46.958Z,101945.19
2023-06-25T05:53:47.904Z,101945.05
2023-06-25T05:54:48.726Z,101945.00
2023-06-25T05:55:49.504Z,101944.91
2023-06-25T05:56:50.358Z,101944.55
2023-06-25T05:57:51.074Z,101944.80
2023-06-25T05:58:51.973Z,101944.84
2023-06-25T05:59:52.085Z,101944.50
2023-06-25T06:00:52.972Z,101944.82
2023-06-25T06:01:53.650Z,101944.97
2023-06-25T06:02:54.581Z,101945.25
2023-06-25T06:03:54.540Z,101945.19
2023-06-25T06:04:55.252Z,101944.98
2023-06-25T06:05:55.874Z,101944.68
2023-06-25T06:06:56.826Z,101945.09
2023-06-25T06:07:06.422Z,101939.02
2023-06-25T06:08:07.217Z,101939.05
2023-06-25T06:09:08.149Z,101939.16
2023-06-25T06:10:09.063Z,101939.51
2023-06-25T06:11:09.908Z,101939.92
2023-06-25T06:12:10.886Z,101939.68
2023-06-25T06:13:11.804Z,101939.92
2023-06-25T06:14:12.100Z,101940.06
2023-06-25T06:15:12.959Z,101939.13
2023-06-25T06:16:13.854Z,101939.05
2023-06-25T06:17:14.081Z,101939.11
2023-06-25T06:18:14.987Z,101938.37
2023-06-25T06:19:15.948Z,101938.16
2023-06-25T06:20:16.908Z,101937.55
2023-06-25T06:21:17.096Z,101936.92
2023-06-25T06:22:17.956Z,101936.40
2023-06-25T06:23:18.843Z,101935.70
2023-06-25T06:24:18.854Z,101934.39
2023-06-25T06:25:19.004Z,101933.92
2023-06-25T06:26:19.234Z,101933.72
2023-06-25T06:27:20.207Z,101933.12
2023-06-25T06:28:21.095Z,101932.83
2023-06-25T06:29:22.050Z,101932.83
2023-06-25T06:30:23.021Z,101932.45
2023-06-25T06:31:24.084Z,101932.39
2023-06-25T06:32:24.955Z,101931.72
2023-06-25T06:33:25.762Z,101930.91
2023-06-25T06:34:26.622Z,101930.49
2023-06-25T06:35:27.391Z,101930.48
2023-06-25T06:36:27.934Z,101930.12
2023-06-25T06:37:28.143Z,101929.71
2023-06-25T06:38:29.128Z,101928.70
2023-06-25T06:39:30.072Z,101928.35
2023-06-25T06:39:38.746Z,101917.23
2023-06-25T06:40:39.420Z,101917.17
2023-06-25T06:41:40.200Z,101917.03
2023-06-25T06:42:41.203Z,101917.34
2023-06-25T06:43:42.300Z,101916.70
2023-06-25T06:44:42.304Z,101916.62
2023-06-25T06:45:43.091Z,101915.53
2023-06-25T06:46:43.918Z,101915.27
2023-06-25T06:47:44.777Z,101914.94
2023-06-25T06:48:45.623Z,101914.27
2023-06-25T06:49:45.628Z,101914.02
2023-06-25T06:50:45.718Z,101913.48
2023-06-25T06:51:46.567Z,101913.35
2023-06-25T06:52:47.476Z,101913.22
2023-06-25T06:53:47.614Z,101912.50
2023-06-25T06:54:47.888Z,101911.97
2023-06-25T06:55:48.743Z,101911.46
2023-06-25T06:56:49.563Z,101910.83
2023-06-25T06:57:50.334Z,101910.47
2023-06-25T06:58:51.201Z,101909.98
2023-06-25T06:59:51.197Z,101909.60
2023-06-25T07:00:52.019Z,101908.91
2023-06-25T07:01:52.864Z,101908.84
2023-06-25T07:02:53.600Z,101908.70
2023-06-25T07:03:53.617Z,101908.79
2023-06-25T07:04:53.588Z,101909.16
2023-06-25T07:05:54.432Z,101909.22
2023-06-25T07:06:55.247Z,101909.27
2023-06-25T07:07:56.204Z,101909.30
2023-06-25T07:08:57.117Z,101909.23
2023-06-25T07:09:58.014Z,101909.58
2023-06-25T07:10:06.686Z,101904.41
2023-06-25T07:11:07.649Z,101904.59
2023-06-25T07:12:08.454Z,101904.86
2023-06-25T07:13:09.375Z,101904.89
2023-06-25T07:14:10.406Z,101905.55
2023-06-25T07:15:10.405Z,101905.97
2023-06-25T07:16:11.177Z,101905.88
2023-06-25T07:17:12.086Z,101906.05
2023-06-25T07:18:12.413Z,101905.91
2023-06-25T07:19:13.334Z,101905.15
2023-06-25T07:20:13.578Z,101905.16
2023-06-25T07:21:14.435Z,101904.76
2023-06-25T07:22:15.262Z,101904.28
2023-06-25T07:23:16.077Z,101904.02
2023-06-25T07:24:16.963Z,101903.45
2023-06-25T07:25:18.019Z,101903.20
2023-06-25T07:26:18.823Z,101903.08
2023-06-25T07:27:19.617Z,101902.52
2023-06-25T07:28:20.130Z,101902.61
2023-06-25T07:29:21.133Z,101902.36
2023-06-25T07:30:22.037Z,101902.13
2023-06-25T07:31:22.876Z,101902.03
2023-06-25T07:32:23.614Z,101901.99
2023-06-25T07:33:24.396Z,101901.78
2023-06-25T07:34:25.219Z,101901.33
2023-06-25T07:35:26.174Z,101901.39
2023-06-25T07:36:27.081Z,101901.14
2023-06-25T07:37:27.086Z,101900.22
2023-06-25T07:38:28.025Z,101899.78
2023-06-25T07:39:28.154Z,101899.66
2023-06-25T07:40:28.211Z,101899.36
2023-06-25T07:41:29.073Z,101899.83
2023-06-25T07:41:37.735Z,101896.65
2023-06-25T07:42:38.014Z,101896.27
2023-06-25T07:43:38.267Z,101896.27
2023-06-25T07:44:54.286Z,101895.97
2023-06-25T07:45:39.476Z,101895.66
2023-06-25T07:46:39.978Z,101895.71
2023-06-25T07:47:40.893Z,101894.67
2023-06-25T07:48:41.656Z,101894.37
2023-06-25T07:49:41.701Z,101893.65
2023-06-25T07:50:41.772Z,101893.10
2023-06-25T07:51:43.339Z,101892.82
2023-06-25T07:52:41.876Z,101892.55
2023-06-25T07:53:42.657Z,101891.44
2023-06-25T07:54:43.637Z,101890.67
2023-06-25T07:56:01.017Z,101889.68
2023-06-25T07:56:45.459Z,101888.92
2023-06-25T07:57:46.328Z,101888.59
2023-06-25T07:58:47.261Z,101888.09
2023-06-25T07:59:54.312Z,101887.41
2023-06-25T08:00:48.975Z,101886.89
2023-06-25T08:01:49.926Z,101886.60
2023-06-25T08:02:50.031Z,101886.32
2023-06-25T08:03:50.266Z,101885.74
2023-06-25T08:04:51.064Z,101885.69
2023-06-25T08:05:51.702Z,101885.05
2023-06-25T08:06:52.570Z,101884.30
2023-06-25T08:07:53.357Z,101883.08
2023-06-25T08:08:54.288Z,101882.50
2023-06-25T08:09:58.909Z,101881.50
2023-06-25T08:10:54.377Z,101880.84
2023-06-25T08:11:54.935Z,101880.23
2023-06-25T08:12:55.775Z,101879.41
2023-06-25T08:13:04.464Z,101874.21
2023-06-25T08:14:04.455Z,101874.00
2023-06-25T08:15:05.387Z,101874.17
2023-06-25T08:16:05.361Z,101874.00
2023-06-25T08:17:06.267Z,101873.86
2023-06-25T08:18:07.255Z,101873.52
2023-06-25T08:19:07.777Z,101873.58
2023-06-25T08:20:08.809Z,101873.31
2023-06-25T08:21:09.760Z,101873.06
2023-06-25T08:22:10.631Z,101872.88
2023-06-25T08:23:10.744Z,101872.62
2023-06-25T08:24:11.683Z,101871.97
2023-06-25T08:25:12.663Z,101871.25
2023-06-25T08:26:13.560Z,101870.88
2023-06-25T08:27:14.385Z,101870.30
2023-06-25T08:28:15.305Z,101870.05
2023-06-25T08:29:15.332Z,101869.45
2023-06-25T08:30:16.289Z,101869.01
2023-06-25T08:31:17.208Z,101868.22
2023-06-25T08:32:18.069Z,101867.99
2023-06-25T08:33:18.958Z,101867.13
2023-06-25T08:34:19.823Z,101866.34
2023-06-25T08:35:20.666Z,101865.76
2023-06-25T08:36:21.609Z,101864.99
2023-06-25T08:37:22.396Z,101864.55
2023-06-25T08:38:23.254Z,101864.20
2023-06-25T08:39:24.094Z,101863.87
2023-06-25T08:40:24.938Z,101862.62
2023-06-25T08:41:25.807Z,101862.11
2023-06-25T08:42:26.667Z,101862.11
2023-06-25T08:43:27.516Z,101860.84
2023-06-25T08:44:28.378Z,101859.59
2023-06-25T08:45:28.534Z,101858.90
2023-06-25T08:45:37.533Z,101844.48
2023-06-25T08:46:38.082Z,101844.24
2023-06-25T08:47:38.935Z,101844.77
2023-06-25T08:48:39.768Z,101844.56
2023-06-25T08:49:40.100Z,101844.08
2023-06-25T08:50:40.157Z,101843.80
2023-06-25T08:51:41.037Z,101843.56
2023-06-25T08:52:41.175Z,101842.94
2023-06-25T08:53:41.233Z,101842.74
2023-06-25T08:54:42.125Z,101842.47
2023-06-25T08:55:43.024Z,101842.40
2023-06-25T08:56:43.762Z,101842.05
2023-06-25T08:57:44.663Z,101841.64
2023-06-25T08:58:45.462Z,101841.30
2023-06-25T08:59:46.303Z,101840.61
2023-06-25T09:00:47.245Z,101840.40
2023-06-25T09:01:48.166Z,101839.84
2023-06-25T09:02:48.500Z,101839.12
2023-06-25T09:03:49.420Z,101838.73
2023-06-25T09:04:50.288Z,101837.69
2023-06-25T09:05:51.200Z,101836.89
2023-06-25T09:07:04.029Z,101836.23
2023-06-25T09:07:53.115Z,101835.14
2023-06-25T09:08:53.246Z,101834.31
2023-06-25T09:09:54.167Z,101833.69
2023-06-25T09:10:54.423Z,101832.95
2023-06-25T09:11:55.282Z,101832.91
2023-06-25T09:12:55.490Z,101831.80
2023-06-25T09:13:56.375Z,101831.30
2023-06-25T09:14:57.265Z,101830.50
2023-06-25T09:15:58.426Z,101829.48
2023-06-25T09:16:58.318Z,101829.09
2023-06-25T09:17:09.029Z,101826.17
2023-06-25T09:18:09.982Z,101825.82
2023-06-25T09:19:10.147Z,101825.23
2023-06-25T09:20:10.854Z,101824.29
2023-06-25T09:21:11.767Z,101823.91
2023-06-25T09:22:12.636Z,101823.25
2023-06-25T09:23:13.600Z,101823.00
2023-06-25T09:24:14.485Z,101822.48
2023-06-25T09:25:15.289Z,101821.67
2023-06-25T09:26:15.418Z,101820.94
2023-06-25T09:27:15.938Z,101820.77
2023-06-25T09:28:16.817Z,101820.62
2023-06-25T09:29:17.433Z,101819.98
2023-06-25T09:30:18.240Z,101819.63
2023-06-25T09:31:19.425Z,101819.13
2023-06-25T09:32:19.934Z,101818.15
2023-06-25T09:33:20.474Z,101818.22
2023-06-25T09:34:21.427Z,101817.76
2023-06-25T09:35:22.194Z,101817.47
2023-06-25T09:36:37.530Z,101816.60
2023-06-25T09:37:22.997Z,101815.91
2023-06-25T09:38:23.956Z,101815.38
2023-06-25T09:39:24.811Z,101814.73
2023-06-25T09:40:24.841Z,101814.42
2023-06-25T09:41:25.773Z,101813.54
2023-06-25T09:42:26.609Z,101812.91
2023-06-25T09:43:27.497Z,101812.16
2023-06-25T09:44:28.321Z,101810.83
2023-06-25T09:45:29.188Z,101810.08
2023-06-25T09:46:29.387Z,101809.44
2023-06-25T09:47:30.281Z,101808.25
2023-06-25T09:48:31.265Z,101807.26
2023-06-25T09:49:32.447Z,101805.92
2023-06-25T09:50:33.164Z,101804.97
2023-06-25T09:50:42.335Z,101788.65
2023-06-25T09:51:43.251Z,101788.82
2023-06-25T09:52:44.178Z,101789.14
2023-06-25T09:53:45.076Z,101788.59
2023-06-25T09:54:45.981Z,101788.48
2023-06-25T09:55:46.793Z,101788.18
2023-06-25T09:56:47.625Z,101787.14
2023-06-25T09:57:47.725Z,101787.09
2023-06-25T09:58:48.687Z,101786.56
2023-06-25T09:59:49.588Z,101786.32
2023-06-25T10:00:50.399Z,101786.28
2023-06-25T10:01:50.601Z,101785.93
2023-06-25T10:02:50.951Z,101785.77
2023-06-25T10:03:51.820Z,101785.03
2023-06-25T10:04:52.612Z,101784.00
2023-06-25T10:05:53.492Z,101783.77
2023-06-25T10:06:54.392Z,101783.03
2023-06-25T10:07:55.002Z,101782.67
2023-06-25T10:08:55.846Z,101781.44
2023-06-25T10:09:55.849Z,101780.94
2023-06-25T10:10:56.849Z,101780.47
2023-06-25T10:11:57.843Z,101779.84
2023-06-25T10:12:58.721Z,101778.85
2023-06-25T10:13:59.613Z,101777.86
2023-06-25T10:15:00.593Z,101776.97
2023-06-25T10:16:01.466Z,101775.92
2023-06-25T10:17:02.405Z,101775.22
2023-06-25T10:18:03.421Z,101774.02
2023-06-25T10:19:04.217Z,101773.03
2023-06-25T10:20:05.090Z,101772.08
2023-06-25T10:21:05.908Z,101770.88
2023-06-25T10:22:06.720Z,101769.29
2023-06-25T10:23:07.604Z,101769.06
2023-06-25T10:24:07.654Z,101767.48
2023-06-25T10:25:08.524Z,101766.45
2023-06-25T10:25:17.168Z,101755.81
2023-06-25T10:26:17.999Z,101755.08
2023-06-25T10:27:18.969Z,101754.41
2023-06-25T10:28:19.919Z,101754.14
2023-06-25T10:29:20.860Z,101754.12
2023-06-25T10:30:21.095Z,101753.30
2023-06-25T10:31:21.509Z,101752.37
2023-06-25T10:32:21.595Z,101752.07
2023-06-25T10:33:22.374Z,101751.41
2023-06-25T10:34:23.203Z,101751.06
2023-06-25T10:35:24.041Z,101749.98
2023-06-25T10:36:24.992Z,101749.50
2023-06-25T10:37:25.901Z,101748.81
2023-06-25T10:38:26.797Z,101747.75
2023-06-25T10:39:28.681Z,101747.23
2023-06-25T10:40:28.556Z,101746.36
2023-06-25T10:41:29.452Z,101745.78
2023-06-25T10:42:30.241Z,101745.20
2023-06-25T10:43:31.037Z,101744.16
2023-06-25T10:44:31.298Z,101742.58
2023-06-25T10:45:32.191Z,101741.59
2023-06-25T10:46:35.408Z,101740.53
2023-06-25T10:47:34.179Z,101739.50
2023-06-25T10:48:35.016Z,101738.23
2023-06-25T10:49:35.055Z,101736.84
2023-06-25T10:50:35.097Z,101735.61
2023-06-25T10:51:35.889Z,101734.56
2023-06-25T10:52:36.838Z,101733.35
2023-06-25T10:53:37.490Z,101732.28
2023-06-25T10:54:38.366Z,101731.08
2023-06-25T10:55:39.407Z,101729.72
2023-06-25T10:56:40.055Z,101728.44
2023-06-25T10:56:49.753Z,101715.56
2023-06-25T10:57:49.637Z,101715.14
2023-06-25T10:58:50.543Z,101715.14
2023-06-25T10:59:51.492Z,101715.45
2023-06-25T11:00:52.325Z,101715.50
2023-06-25T11:01:53.159Z,101714.92
2023-06-25T11:02:54.079Z,101714.63
2023-06-25T11:03:54.985Z,101714.27
2023-06-25T11:04:55.779Z,101713.81
2023-06-25T11:05:56.721Z,101712.98
2023-06-25T11:06:56.732Z,101712.12
2023-06-25T11:07:57.673Z,101711.22
2023-06-25T11:08:58.563Z,101710.46
2023-06-25T11:09:58.708Z,101709.69
2023-06-25T11:10:59.562Z,101708.11
2023-06-25T11:12:00.407Z,101707.11
2023-06-25T11:13:01.381Z,101706.27
2023-06-25T11:14:02.326Z,101705.98
2023-06-25T11:15:02.400Z,101706.00